sensor_id;sensor_type;location;lat;lon;timestamp;pressure;altitude;pressure_sealevel;temperature;humidity
63190;BME280;49286;44.460;26.114;2024-02-04T00:02:07;100753.88;;;3.85;100.00
63190;BME280;49286;44.460;26.114;2024-02-04T00:04:34;100723.63;;;3.58;100.00
63190;BME280;49286;44.460;26.114;2024-02-04T00:07:01;100709.69;;;3.56;100.00
63190;BME280;49286;44.460;26.114;2024-02-04T00:09:26;100814.16;;;4.29;100.00
63190;BME280;49286;44.460;26.114;2024-02-04T00:11:54;100737.72;;;3.94;100.00
63190;BME280;49286;44.460;26.114;2024-02-04T00:14:19;100814.78;;;4.49;100.00
63190;BME280;49286;44.460;26.114;2024-02-04T00:16:45;100741.94;;;3.63;100.00
63190;BME280;49286;44.460;26.114;2024-02-04T00:19:10;100821.34;;;4.11;100.00
63190;BME280;49286;44.460;26.114;2024-02-04T00:21:36;100726.44;;;3.66;100.00
63190;BME280;49286;44.460;26.114;2024-02-04T00:24:02;100797.25;;;4.15;100.00
63190;BME280;49286;44.460;26.114;2024-02-04T00:26:27;100689.59;;;3.51;100.00
63190;BME280;49286;44.460;26.114;2024-02-04T00:28:53;100698.06;;;3.71;100.00
63190;BME280;49286;44.460;26.114;2024-02-04T00:31:18;100779.56;;;4.30;100.00
63190;BME280;49286;44.460;26.114;2024-02-04T00:33:44;100789.75;;;4.24;100.00
63190;BME280;49286;44.460;26.114;2024-02-04T00:36:09;100701.91;;;3.84;100.00
63190;BME280;49286;44.460;26.114;2024-02-04T00:38:35;100759.03;;;4.11;100.00
63190;BME280;49286;44.460;26.114;2024-02-04T00:41:00;100728.94;;;3.90;100.00
63190;BME280;49286;44.460;26.114;2024-02-04T00:43:26;100736.94;;;3.96;100.00
63190;BME280;49286;44.460;26.114;2024-02-04T00:45:51;100767.75;;;4.13;100.00
63190;BME280;49286;44.460;26.114;2024-02-04T00:48:17;100669.50;;;3.44;100.00
63190;BME280;49286;44.460;26.114;2024-02-04T00:50:42;100674.53;;;3.39;100.00
63190;BME280;49286;44.460;26.114;2024-02-04T00:53:08;100707.00;;;3.53;100.00
63190;BME280;49286;44.460;26.114;2024-02-04T00:55:33;100739.53;;;3.96;100.00
63190;BME280;49286;44.460;26.114;2024-02-04T00:57:59;100746.25;;;3.90;100.00
63190;BME280;49286;44.460;26.114;2024-02-04T01:00:26;100705.28;;;3.79;100.00
63190;BME280;49286;44.460;26.114;2024-02-04T01:02:52;100735.78;;;3.87;100.00
63190;BME280;49286;44.460;26.114;2024-02-04T01:05:19;100709.22;;;3.68;100.00
63190;BME280;49286;44.460;26.114;2024-02-04T01:07:44;100659.38;;;3.51;100.00
63190;BME280;49286;44.460;26.114;2024-02-04T01:10:10;100632.88;;;3.34;100.00
63190;BME280;49286;44.460;26.114;2024-02-04T01:12:36;100650.41;;;3.42;100.00
63190;BME280;49286;44.460;26.114;2024-02-04T01:15:02;100725.28;;;3.84;100.00
63190;BME280;49286;44.460;26.114;2024-02-04T01:17:30;100643.25;;;3.34;100.00
63190;BME280;49286;44.460;26.114;2024-02-04T01:19:56;100702.78;;;3.57;100.00
63190;BME280;49286;44.460;26.114;2024-02-04T01:22:22;100712.53;;;3.64;100.00
63190;BME280;49286;44.460;26.114;2024-02-04T01:24:51;100670.50;;;3.47;100.00
63190;BME280;49286;44.460;26.114;2024-02-04T01:27:17;100648.03;;;3.22;100.00
63190;BME280;49286;44.460;26.114;2024-02-04T01:29:42;100680.16;;;3.26;100.00
63190;BME280;49286;44.460;26.114;2024-02-04T01:32:08;100748.34;;;3.74;100.00
63190;BME280;49286;44.460;26.114;2024-02-04T01:34:34;100748.00;;;3.64;100.00
63190;BME280;49286;44.460;26.114;2024-02-04T01:36:59;100751.38;;;3.61;100.00
63190;BME280;49286;44.460;26.114;2024-02-04T01:39:24;100754.59;;;3.54;100.00
63190;BME280;49286;44.460;26.114;2024-02-04T01:41:50;100739.28;;;3.62;100.00
63190;BME280;49286;44.460;26.114;2024-02-04T01:44:16;100739.34;;;3.63;100.00
63190;BME280;49286;44.460;26.114;2024-02-04T01:46:43;100646.47;;;3.02;100.00
63190;BME280;49286;44.460;26.114;2024-02-04T01:49:09;100671.75;;;3.07;100.00
63190;BME280;49286;44.460;26.114;2024-02-04T01:51:35;100735.91;;;3.38;100.00
63190;BME280;49286;44.460;26.114;2024-02-04T01:54:01;100731.72;;;3.42;100.00
63190;BME280;49286;44.460;26.114;2024-02-04T01:56:28;100724.69;;;3.14;100.00
63190;BME280;49286;44.460;26.114;2024-02-04T01:58:55;100646.91;;;2.88;100.00
63190;BME280;49286;44.460;26.114;2024-02-04T02:01:21;100659.72;;;3.09;100.00
63190;BME280;49286;44.460;26.114;2024-02-04T02:03:48;100637.50;;;2.92;100.00
63190;BME280;49286;44.460;26.114;2024-02-04T02:06:15;100636.78;;;2.96;100.00
63190;BME280;49286;44.460;26.114;2024-02-04T02:08:41;100651.63;;;3.00;100.00
63190;BME280;49286;44.460;26.114;2024-02-04T02:11:13;100623.84;;;2.96;100.00
63190;BME280;49286;44.460;26.114;2024-02-04T02:13:45;100726.88;;;3.53;100.00
63190;BME280;49286;44.460;26.114;2024-02-04T02:16:17;100719.06;;;3.51;100.00
63190;BME280;49286;44.460;26.114;2024-02-04T02:21:25;100722.00;;;3.36;100.00
63190;BME280;49286;44.460;26.114;2024-02-04T02:26:42;100707.03;;;3.28;100.00
63190;BME280;49286;44.460;26.114;2024-02-04T02:29:08;100669.97;;;3.06;100.00
63190;BME280;49286;44.460;26.114;2024-02-04T02:31:37;100726.59;;;3.20;100.00
63190;BME280;49286;44.460;26.114;2024-02-04T02:34:03;100643.84;;;2.76;100.00
63190;BME280;49286;44.460;26.114;2024-02-04T02:36:33;100714.75;;;3.26;100.00
63190;BME280;49286;44.460;26.114;2024-02-04T02:39:18;100720.63;;;3.22;100.00
63190;BME280;49286;44.460;26.114;2024-02-04T02:41:49;100707.31;;;3.11;100.00
63190;BME280;49286;44.460;26.114;2024-02-04T02:44:16;100661.69;;;2.92;100.00
63190;BME280;49286;44.460;26.114;2024-02-04T02:46:43;100711.75;;;3.15;100.00
63190;BME280;49286;44.460;26.114;2024-02-04T02:49:09;100666.84;;;2.91;100.00
63190;BME280;49286;44.460;26.114;2024-02-04T02:51:35;100677.66;;;3.03;100.00
63190;BME280;49286;44.460;26.114;2024-02-04T02:54:01;100604.16;;;2.51;100.00
63190;BME280;49286;44.460;26.114;2024-02-04T02:56:26;100694.91;;;3.03;100.00
63190;BME280;49286;44.460;26.114;2024-02-04T02:58:52;100500.69;;;1.82;100.00
63190;BME280;49286;44.460;26.114;2024-02-04T03:01:17;100697.44;;;3.01;100.00
63190;BME280;49286;44.460;26.114;2024-02-04T03:03:43;100703.97;;;3.15;100.00
63190;BME280;49286;44.460;26.114;2024-02-04T03:06:08;100610.59;;;2.63;100.00
63190;BME280;49286;44.460;26.114;2024-02-04T03:08:34;100704.28;;;3.23;100.00
63190;BME280;49286;44.460;26.114;2024-02-04T03:10:59;100692.56;;;3.10;100.00
63190;BME280;49286;44.460;26.114;2024-02-04T03:13:25;100549.88;;;2.30;100.00
63190;BME280;49286;44.460;26.114;2024-02-04T03:15:50;100698.75;;;3.14;100.00
63190;BME280;49286;44.460;26.114;2024-02-04T03:18:16;100633.88;;;2.87;100.00
63190;BME280;49286;44.460;26.114;2024-02-04T03:20:41;100673.47;;;3.07;100.00
63190;BME280;49286;44.460;26.114;2024-02-04T03:23:07;100687.63;;;3.16;100.00
63190;BME280;49286;44.460;26.114;2024-02-04T03:25:32;100685.81;;;3.14;100.00
63190;BME280;49286;44.460;26.114;2024-02-04T03:27:58;100575.81;;;2.56;100.00
63190;BME280;49286;44.460;26.114;2024-02-04T03:30:25;100595.78;;;2.59;100.00
63190;BME280;49286;44.460;26.114;2024-02-04T03:32:50;100628.31;;;2.76;100.00
63190;BME280;49286;44.460;26.114;2024-02-04T03:35:16;100685.69;;;3.11;100.00
63190;BME280;49286;44.460;26.114;2024-02-04T03:37:41;100704.16;;;3.20;100.00
63190;BME280;49286;44.460;26.114;2024-02-04T03:40:07;100657.22;;;2.87;100.00
63190;BME280;49286;44.460;26.114;2024-02-04T03:42:33;100712.22;;;3.04;100.00
63190;BME280;49286;44.460;26.114;2024-02-04T03:44:58;100709.72;;;2.81;100.00
63190;BME280;49286;44.460;26.114;2024-02-04T03:47:24;100641.78;;;2.66;100.00
63190;BME280;49286;44.460;26.114;2024-02-04T03:49:49;100594.94;;;2.36;100.00
63190;BME280;49286;44.460;26.114;2024-02-04T03:52:15;100617.91;;;2.50;100.00
63190;BME280;49286;44.460;26.114;2024-02-04T03:54:40;100706.41;;;3.11;100.00
63190;BME280;49286;44.460;26.114;2024-02-04T03:57:06;100718.56;;;3.12;100.00
63190;BME280;49286;44.460;26.114;2024-02-04T03:59:31;100730.25;;;3.01;100.00
63190;BME280;49286;44.460;26.114;2024-02-04T04:01:56;100740.38;;;2.93;100.00
63190;BME280;49286;44.460;26.114;2024-02-04T04:04:23;100722.50;;;3.01;100.00
63190;BME280;49286;44.460;26.114;2024-02-04T04:06:48;100657.38;;;2.67;100.00
63190;BME280;49286;44.460;26.114;2024-02-04T04:09:14;100732.19;;;3.06;100.00
63190;BME280;49286;44.460;26.114;2024-02-04T04:11:40;100621.34;;;2.49;100.00
63190;BME280;49286;44.460;26.114;2024-02-04T04:14:06;100725.50;;;3.13;100.00
63190;BME280;49286;44.460;26.114;2024-02-04T04:16:31;100618.69;;;2.48;100.00
63190;BME280;49286;44.460;26.114;2024-02-04T04:18:57;100643.53;;;2.67;100.00
63190;BME280;49286;44.460;26.114;2024-02-04T04:21:23;100634.53;;;2.56;100.00
63190;BME280;49286;44.460;26.114;2024-02-04T04:23:49;100734.47;;;3.23;100.00
63190;BME280;49286;44.460;26.114;2024-02-04T04:26:15;100711.97;;;3.22;100.00
63190;BME280;49286;44.460;26.114;2024-02-04T04:28:41;100726.81;;;3.26;100.00
63190;BME280;49286;44.460;26.114;2024-02-04T04:31:06;100710.66;;;3.33;100.00
63190;BME280;49286;44.460;26.114;2024-02-04T04:33:32;100630.41;;;2.86;100.00
63190;BME280;49286;44.460;26.114;2024-02-04T04:35:57;100678.13;;;3.17;100.00
63190;BME280;49286;44.460;26.114;2024-02-04T04:38:23;100684.13;;;3.16;100.00
63190;BME280;49286;44.460;26.114;2024-02-04T04:40:49;100673.84;;;2.93;100.00
63190;BME280;49286;44.460;26.114;2024-02-04T04:43:14;100713.53;;;3.16;100.00
63190;BME280;49286;44.460;26.114;2024-02-04T04:45:40;100626.44;;;2.48;100.00
63190;BME280;49286;44.460;26.114;2024-02-04T04:48:06;100686.13;;;2.99;100.00
63190;BME280;49286;44.460;26.114;2024-02-04T04:50:35;100722.97;;;3.14;100.00
63190;BME280;49286;44.460;26.114;2024-02-04T04:53:01;100720.53;;;3.19;100.00
63190;BME280;49286;44.460;26.114;2024-02-04T04:55:26;100713.72;;;3.23;100.00
63190;BME280;49286;44.460;26.114;2024-02-04T04:57:52;100621.94;;;2.66;100.00
63190;BME280;49286;44.460;26.114;2024-02-04T05:00:18;100645.41;;;2.71;100.00
63190;BME280;49286;44.460;26.114;2024-02-04T05:02:43;100634.22;;;2.24;100.00
63190;BME280;49286;44.460;26.114;2024-02-04T05:05:12;100637.75;;;2.50;100.00
63190;BME280;49286;44.460;26.114;2024-02-04T05:07:38;100724.25;;;3.02;100.00
63190;BME280;49286;44.460;26.114;2024-02-04T05:10:04;100737.59;;;2.88;100.00
63190;BME280;49286;44.460;26.114;2024-02-04T05:12:32;100638.69;;;2.05;100.00
63190;BME280;49286;44.460;26.114;2024-02-04T05:14:57;100654.84;;;2.45;100.00
63190;BME280;49286;44.460;26.114;2024-02-04T05:17:23;100647.56;;;2.35;100.00
63190;BME280;49286;44.460;26.114;2024-02-04T05:19:48;100613.56;;;2.25;100.00
63190;BME280;49286;44.460;26.114;2024-02-04T05:22:14;100742.53;;;3.06;100.00
63190;BME280;49286;44.460;26.114;2024-02-04T05:24:41;100735.19;;;2.93;100.00
63190;BME280;49286;44.460;26.114;2024-02-04T05:27:06;100723.97;;;2.94;100.00
63190;BME280;49286;44.460;26.114;2024-02-04T05:29:32;100637.59;;;2.45;100.00
63190;BME280;49286;44.460;26.114;2024-02-04T05:31:57;100705.72;;;2.67;100.00
63190;BME280;49286;44.460;26.114;2024-02-04T05:34:23;100637.56;;;2.21;100.00
63190;BME280;49286;44.460;26.114;2024-02-04T05:36:48;100627.91;;;2.40;100.00
63190;BME280;49286;44.460;26.114;2024-02-04T05:39:15;100662.88;;;2.52;100.00
63190;BME280;49286;44.460;26.114;2024-02-04T05:41:42;100730.44;;;3.05;100.00
63190;BME280;49286;44.460;26.114;2024-02-04T05:44:08;100674.84;;;2.73;100.00
63190;BME280;49286;44.460;26.114;2024-02-04T05:46:38;100651.53;;;2.73;100.00
63190;BME280;49286;44.460;26.114;2024-02-04T05:49:04;100654.06;;;2.71;100.00
63190;BME280;49286;44.460;26.114;2024-02-04T05:51:32;100637.28;;;2.60;100.00
63190;BME280;49286;44.460;26.114;2024-02-04T05:53:58;100626.44;;;2.48;100.00
63190;BME280;49286;44.460;26.114;2024-02-04T05:56:24;100631.00;;;2.53;100.00
63190;BME280;49286;44.460;26.114;2024-02-04T05:58:49;100641.53;;;2.58;100.00
63190;BME280;49286;44.460;26.114;2024-02-04T06:01:16;100735.41;;;3.25;100.00
63190;BME280;49286;44.460;26.114;2024-02-04T06:03:42;100741.41;;;2.98;100.00
63190;BME280;49286;44.460;26.114;2024-02-04T06:06:09;100654.41;;;2.57;100.00
63190;BME280;49286;44.460;26.114;2024-02-04T06:08:34;100755.34;;;3.26;100.00
63190;BME280;49286;44.460;26.114;2024-02-04T06:11:00;100753.91;;;3.34;100.00
63190;BME280;49286;44.460;26.114;2024-02-04T06:13:25;100669.84;;;2.78;100.00
63190;BME280;49286;44.460;26.114;2024-02-04T06:15:51;100755.88;;;3.41;100.00
63190;BME280;49286;44.460;26.114;2024-02-04T06:18:16;100760.91;;;3.36;100.00
63190;BME280;49286;44.460;26.114;2024-02-04T06:20:42;100672.47;;;3.03;100.00
63190;BME280;49286;44.460;26.114;2024-02-04T06:23:08;100644.16;;;2.36;100.00
63190;BME280;49286;44.460;26.114;2024-02-04T06:25:33;100664.75;;;2.81;100.00
63190;BME280;49286;44.460;26.114;2024-02-04T06:27:59;100761.91;;;3.40;100.00
63190;BME280;49286;44.460;26.114;2024-02-04T06:30:24;100773.25;;;3.44;100.00
63190;BME280;49286;44.460;26.114;2024-02-04T06:32:50;100771.81;;;3.52;100.00
63190;BME280;49286;44.460;26.114;2024-02-04T06:35:16;100769.25;;;3.53;100.00
63190;BME280;49286;44.460;26.114;2024-02-04T06:37:41;100677.81;;;3.08;100.00
63190;BME280;49286;44.460;26.114;2024-02-04T06:40:10;100699.28;;;3.29;100.00
63190;BME280;49286;44.460;26.114;2024-02-04T06:42:36;100764.06;;;3.53;100.00
63190;BME280;49286;44.460;26.114;2024-02-04T06:45:01;100664.94;;;3.11;100.00
63190;BME280;49286;44.460;26.114;2024-02-04T06:47:27;100756.66;;;3.64;100.00
63190;BME280;49286;44.460;26.114;2024-02-04T06:49:52;100743.16;;;3.49;100.00
63190;BME280;49286;44.460;26.114;2024-02-04T06:52:18;100749.25;;;3.49;100.00
63190;BME280;49286;44.460;26.114;2024-02-04T06:54:44;100761.59;;;3.82;100.00
63190;BME280;49286;44.460;26.114;2024-02-04T06:57:09;100656.50;;;3.16;100.00
63190;BME280;49286;44.460;26.114;2024-02-04T06:59:35;100681.91;;;3.27;100.00
63190;BME280;49286;44.460;26.114;2024-02-04T07:02:00;100664.13;;;3.12;100.00
63190;BME280;49286;44.460;26.114;2024-02-04T07:04:26;100756.09;;;3.73;100.00
63190;BME280;49286;44.460;26.114;2024-02-04T07:06:51;100748.94;;;3.66;100.00
63190;BME280;49286;44.460;26.114;2024-02-04T07:09:17;100759.16;;;3.88;100.00
63190;BME280;49286;44.460;26.114;2024-02-04T07:11:43;100726.50;;;3.68;100.00
63190;BME280;49286;44.460;26.114;2024-02-04T07:14:08;100759.38;;;3.94;100.00
63190;BME280;49286;44.460;26.114;2024-02-04T07:16:34;100740.34;;;3.95;100.00
63190;BME280;49286;44.460;26.114;2024-02-04T07:18:59;100667.31;;;3.56;100.00
63190;BME280;49286;44.460;26.114;2024-02-04T07:21:25;100737.88;;;3.98;100.00
63190;BME280;49286;44.460;26.114;2024-02-04T07:23:50;100665.22;;;3.44;100.00
63190;BME280;49286;44.460;26.114;2024-02-04T07:26:16;100674.47;;;3.63;100.00
63190;BME280;49286;44.460;26.114;2024-02-04T07:28:41;100655.78;;;3.48;100.00
63190;BME280;49286;44.460;26.114;2024-02-04T07:31:07;100742.88;;;3.92;100.00
63190;BME280;49286;44.460;26.114;2024-02-04T07:33:33;100753.13;;;4.15;100.00
63190;BME280;49286;44.460;26.114;2024-02-04T07:35:58;100754.06;;;4.17;100.00
63190;BME280;49286;44.460;26.114;2024-02-04T07:38:24;100745.69;;;4.27;100.00
63190;BME280;49286;44.460;26.114;2024-02-04T07:40:49;100722.88;;;4.17;100.00
63190;BME280;49286;44.460;26.114;2024-02-04T07:43:15;100693.84;;;4.01;100.00
63190;BME280;49286;44.460;26.114;2024-02-04T07:45:40;100642.34;;;3.87;100.00
63190;BME280;49286;44.460;26.114;2024-02-04T07:48:07;100699.78;;;4.26;100.00
63190;BME280;49286;44.460;26.114;2024-02-04T07:50:34;100667.22;;;4.09;100.00
63190;BME280;49286;44.460;26.114;2024-02-04T07:53:00;100689.81;;;4.11;100.00
63190;BME280;49286;44.460;26.114;2024-02-04T07:55:25;100612.94;;;3.88;100.00
63190;BME280;49286;44.460;26.114;2024-02-04T07:57:51;100634.34;;;4.09;100.00
63190;BME280;49286;44.460;26.114;2024-02-04T08:00:16;100652.91;;;4.21;100.00
63190;BME280;49286;44.460;26.114;2024-02-04T08:02:44;100675.19;;;4.43;100.00
63190;BME280;49286;44.460;26.114;2024-02-04T08:05:10;100693.72;;;4.56;100.00
63190;BME280;49286;44.460;26.114;2024-02-04T08:07:35;100673.03;;;4.59;100.00
63190;BME280;49286;44.460;26.114;2024-02-04T08:10:01;100712.44;;;4.44;100.00
63190;BME280;49286;44.460;26.114;2024-02-04T08:12:26;100723.22;;;4.58;100.00
63190;BME280;49286;44.460;26.114;2024-02-04T08:14:52;100655.66;;;4.28;100.00
63190;BME280;49286;44.460;26.114;2024-02-04T08:17:18;100752.81;;;4.63;100.00
63190;BME280;49286;44.460;26.114;2024-02-04T08:19:43;100724.59;;;4.45;100.00
63190;BME280;49286;44.460;26.114;2024-02-04T08:22:09;100742.69;;;4.71;100.00
63190;BME280;49286;44.460;26.114;2024-02-04T08:24:34;100740.91;;;4.70;100.00
63190;BME280;49286;44.460;26.114;2024-02-04T08:27:01;100677.84;;;4.47;100.00
63190;BME280;49286;44.460;26.114;2024-02-04T08:29:27;100648.09;;;4.35;100.00
63190;BME280;49286;44.460;26.114;2024-02-04T08:31:52;100750.50;;;5.02;100.00
63190;BME280;49286;44.460;26.114;2024-02-04T08:34:18;100647.75;;;4.53;100.00
63190;BME280;49286;44.460;26.114;2024-02-04T08:36:46;100723.94;;;5.14;100.00
63190;BME280;49286;44.460;26.114;2024-02-04T08:39:12;100750.16;;;5.22;100.00
63190;BME280;49286;44.460;26.114;2024-02-04T08:41:37;100706.16;;;4.98;100.00
63190;BME280;49286;44.460;26.114;2024-02-04T08:44:03;100734.66;;;5.26;100.00
63190;BME280;49286;44.460;26.114;2024-02-04T08:46:29;100723.75;;;5.40;100.00
63190;BME280;49286;44.460;26.114;2024-02-04T08:48:54;100713.56;;;5.49;100.00
63190;BME280;49286;44.460;26.114;2024-02-04T08:51:20;100620.47;;;5.02;100.00
63190;BME280;49286;44.460;26.114;2024-02-04T08:53:45;100715.88;;;5.38;100.00
63190;BME280;49286;44.460;26.114;2024-02-04T08:56:11;100698.88;;;5.51;100.00
63190;BME280;49286;44.460;26.114;2024-02-04T08:58:36;100678.13;;;5.54;100.00
63190;BME280;49286;44.460;26.114;2024-02-04T09:01:05;100701.13;;;5.72;100.00
63190;BME280;49286;44.460;26.114;2024-02-04T09:03:31;100710.97;;;5.84;100.00
63190;BME280;49286;44.460;26.114;2024-02-04T09:05:57;100711.66;;;5.77;100.00
63190;BME280;49286;44.460;26.114;2024-02-04T09:08:23;100656.16;;;5.43;100.00
63190;BME280;49286;44.460;26.114;2024-02-04T09:10:48;100724.16;;;5.90;100.00
63190;BME280;49286;44.460;26.114;2024-02-04T09:13:14;100702.94;;;5.75;100.00
63190;BME280;49286;44.460;26.114;2024-02-04T09:15:39;100712.19;;;5.63;100.00
63190;BME280;49286;44.460;26.114;2024-02-04T09:18:05;100730.94;;;5.85;100.00
63190;BME280;49286;44.460;26.114;2024-02-04T09:20:30;100724.97;;;5.89;100.00
63190;BME280;49286;44.460;26.114;2024-02-04T09:22:56;100643.16;;;5.43;100.00
63190;BME280;49286;44.460;26.114;2024-02-04T09:25:21;100721.22;;;5.78;100.00
63190;BME280;49286;44.460;26.114;2024-02-04T09:27:47;100724.00;;;5.84;100.00
63190;BME280;49286;44.460;26.114;2024-02-04T09:30:12;100722.47;;;5.93;100.00
63190;BME280;49286;44.460;26.114;2024-02-04T09:32:38;100722.63;;;5.98;100.00
63190;BME280;49286;44.460;26.114;2024-02-04T09:35:04;100664.69;;;5.72;100.00
63190;BME280;49286;44.460;26.114;2024-02-04T09:37:29;100668.13;;;5.71;100.00
63190;BME280;49286;44.460;26.114;2024-02-04T09:39:55;100718.81;;;5.85;100.00
63190;BME280;49286;44.460;26.114;2024-02-04T09:42:22;100710.69;;;6.06;100.00
63190;BME280;49286;44.460;26.114;2024-02-04T09:44:51;100699.53;;;6.13;100.00
63190;BME280;49286;44.460;26.114;2024-02-04T09:47:20;100692.63;;;6.16;100.00
63190;BME280;49286;44.460;26.114;2024-02-04T09:49:46;100632.31;;;5.97;100.00
63190;BME280;49286;44.460;26.114;2024-02-04T09:52:13;100675.94;;;6.07;100.00
63190;BME280;49286;44.460;26.114;2024-02-04T09:54:44;100669.94;;;6.10;100.00
63190;BME280;49286;44.460;26.114;2024-02-04T09:57:11;100605.41;;;5.24;100.00
63190;BME280;49286;44.460;26.114;2024-02-04T09:59:38;100696.53;;;5.97;100.00
63190;BME280;49286;44.460;26.114;2024-02-04T10:02:04;100654.03;;;5.99;100.00
63190;BME280;49286;44.460;26.114;2024-02-04T10:04:30;100618.88;;;5.80;100.00
63190;BME280;49286;44.460;26.114;2024-02-04T10:06:56;100669.47;;;5.90;100.00
63190;BME280;49286;44.460;26.114;2024-02-04T10:09:22;100685.88;;;6.24;100.00
63190;BME280;49286;44.460;26.114;2024-02-04T10:11:47;100699.66;;;6.20;100.00
63190;BME280;49286;44.460;26.114;2024-02-04T10:14:15;100703.69;;;6.45;100.00
63190;BME280;49286;44.460;26.114;2024-02-04T10:16:41;100699.44;;;6.50;100.00
63190;BME280;49286;44.460;26.114;2024-02-04T10:19:07;100609.00;;;6.03;100.00
63190;BME280;49286;44.460;26.114;2024-02-04T10:21:32;100699.50;;;6.51;100.00
63190;BME280;49286;44.460;26.114;2024-02-04T10:23:59;100705.44;;;6.44;100.00
63190;BME280;49286;44.460;26.114;2024-02-04T10:26:28;100679.47;;;6.50;100.00
63190;BME280;49286;44.460;26.114;2024-02-04T10:28:57;100699.03;;;6.71;100.00
63190;BME280;49286;44.460;26.114;2024-02-04T10:31:23;100703.31;;;6.67;100.00
63190;BME280;49286;44.460;26.114;2024-02-04T10:33:50;100599.59;;;6.10;100.00
63190;BME280;49286;44.460;26.114;2024-02-04T10:36:16;100684.97;;;6.63;100.00
63190;BME280;49286;44.460;26.114;2024-02-04T10:38:42;100696.44;;;6.72;100.00
63190;BME280;49286;44.460;26.114;2024-02-04T10:41:13;100688.81;;;6.83;100.00
63190;BME280;49286;44.460;26.114;2024-02-04T10:43:42;100583.25;;;6.17;100.00
63190;BME280;49286;44.460;26.114;2024-02-04T10:46:14;100670.28;;;6.69;100.00
63190;BME280;49286;44.460;26.114;2024-02-04T10:48:43;100587.53;;;6.13;100.00
63190;BME280;49286;44.460;26.114;2024-02-04T10:51:14;100589.91;;;6.47;100.00
63190;BME280;49286;44.460;26.114;2024-02-04T10:53:44;100673.34;;;6.91;100.00
63190;BME280;49286;44.460;26.114;2024-02-04T10:56:26;100592.34;;;6.38;100.00
63190;BME280;49286;44.460;26.114;2024-02-04T10:58:53;100662.16;;;6.98;100.00
63190;BME280;49286;44.460;26.114;2024-02-04T11:01:21;100565.72;;;6.54;100.00
63190;BME280;49286;44.460;26.114;2024-02-04T11:03:48;100666.53;;;6.99;100.00
63190;BME280;49286;44.460;26.114;2024-02-04T11:06:17;100592.56;;;6.50;100.00
63190;BME280;49286;44.460;26.114;2024-02-04T11:08:43;100657.88;;;7.02;100.00
63190;BME280;49286;44.460;26.114;2024-02-04T11:11:09;100582.28;;;6.58;100.00
63190;BME280;49286;44.460;26.114;2024-02-04T11:13:35;100660.03;;;6.79;100.00
63190;BME280;49286;44.460;26.114;2024-02-04T11:16:07;100643.88;;;6.96;100.00
63190;BME280;49286;44.460;26.114;2024-02-04T11:21:46;100656.66;;;7.31;100.00
63190;BME280;49286;44.460;26.114;2024-02-04T11:25:02;100650.69;;;7.38;100.00
63190;BME280;49286;44.460;26.114;2024-02-04T11:27:33;100638.63;;;7.45;100.00
63190;BME280;49286;44.460;26.114;2024-02-04T11:29:59;100546.56;;;7.02;100.00
63190;BME280;49286;44.460;26.114;2024-02-04T11:32:25;100638.06;;;7.65;100.00
63190;BME280;49286;44.460;26.114;2024-02-04T11:34:54;100634.69;;;7.72;100.00
63190;BME280;49286;44.460;26.114;2024-02-04T11:37:26;100616.38;;;7.69;100.00
63190;BME280;49286;44.460;26.114;2024-02-04T11:39:53;100583.03;;;7.52;100.00
63190;BME280;49286;44.460;26.114;2024-02-04T11:42:23;100607.94;;;7.88;100.00
63190;BME280;49286;44.460;26.114;2024-02-04T11:44:48;100525.22;;;7.26;100.00
63190;BME280;49286;44.460;26.114;2024-02-04T11:47:24;100592.19;;;7.83;100.00
63190;BME280;49286;44.460;26.114;2024-02-04T11:49:57;100531.06;;;7.72;100.00
63190;BME280;49286;44.460;26.114;2024-02-04T11:52:27;100513.50;;;7.60;100.00
63190;BME280;49286;44.460;26.114;2024-02-04T11:54:54;100597.00;;;8.18;100.00
63190;BME280;49286;44.460;26.114;2024-02-04T11:57:19;100591.38;;;8.56;100.00
63190;BME280;49286;44.460;26.114;2024-02-04T11:59:46;100594.53;;;8.29;100.00
63190;BME280;49286;44.460;26.114;2024-02-04T12:02:15;100493.78;;;7.84;100.00
63190;BME280;49286;44.460;26.114;2024-02-04T12:04:42;100571.22;;;8.43;100.00
63190;BME280;49286;44.460;26.114;2024-02-04T12:07:08;100539.81;;;8.44;100.00
63190;BME280;49286;44.460;26.114;2024-02-04T12:09:34;100470.78;;;8.27;100.00
63190;BME280;49286;44.460;26.114;2024-02-04T12:12:00;100465.63;;;8.35;100.00
63190;BME280;49286;44.460;26.114;2024-02-04T12:14:28;100485.78;;;8.43;100.00
63190;BME280;49286;44.460;26.114;2024-02-04T12:16:56;100537.78;;;9.01;100.00
63190;BME280;49286;44.460;26.114;2024-02-04T12:19:23;100551.72;;;9.03;100.00
63190;BME280;49286;44.460;26.114;2024-02-04T12:21:48;100488.66;;;8.70;100.00
63190;BME280;49286;44.460;26.114;2024-02-04T12:24:14;100457.97;;;8.52;100.00
63190;BME280;49286;44.460;26.114;2024-02-04T12:26:40;100525.41;;;8.86;100.00
63190;BME280;49286;44.460;26.114;2024-02-04T12:29:06;100512.50;;;9.08;100.00
63190;BME280;49286;44.460;26.114;2024-02-04T12:31:32;100514.31;;;9.14;100.00
63190;BME280;49286;44.460;26.114;2024-02-04T12:34:01;100462.72;;;9.00;100.00
63190;BME280;49286;44.460;26.114;2024-02-04T12:36:27;100524.00;;;9.32;100.00
63190;BME280;49286;44.460;26.114;2024-02-04T12:38:54;100433.09;;;9.04;100.00
63190;BME280;49286;44.460;26.114;2024-02-04T12:41:21;100488.31;;;9.47;100.00
63190;BME280;49286;44.460;26.114;2024-02-04T12:43:50;100493.69;;;9.67;100.00
63190;BME280;49286;44.460;26.114;2024-02-04T12:46:16;100447.25;;;9.40;100.00